Time;durP1;ratioP1;P1;durP2;ratioP2;P2;SDS_P1;SDS_P2;PMS_P1;PMS_P2;Temp;Humidity;BMP_temperature;BMP_pressure;BME280_temperature;BME280_humidity;BME280_pressure;Samples;Min_cycle;Max_cycle;Signal;HPM_P1;HPM_P2
2022/04/25 00:00:20;;;;;;;3.93;3.63;;;17.80;61.40;;;;;;5034375;28;20420;-73
2022/04/25 00:02:50;;;;;;;3.80;3.50;;;17.80;61.10;;;;;;5032994;28;20419;-73
2022/04/25 00:05:18;;;;;;;3.60;3.30;;;17.70;61.30;;;;;;5028245;28;20518;-73
2022/04/25 00:07:46;;;;;;;3.67;3.40;;;17.80;61.60;;;;;;5030678;28;20487;-73
2022/04/25 00:10:14;;;;;;;3.60;3.30;;;17.80;61.20;;;;;;5031895;28;20933;-73
2022/04/25 00:12:44;;;;;;;3.60;3.30;;;17.80;61.30;;;;;;5024670;28;20807;-73
2022/04/25 00:15:12;;;;;;;3.53;3.23;;;17.80;61.30;;;;;;5024859;28;20453;-72
2022/04/25 00:17:40;;;;;;;3.53;3.23;;;17.70;61.00;;;;;;5027805;28;20432;-73
2022/04/25 00:20:10;;;;;;;3.33;3.03;;;17.70;61.00;;;;;;5030540;28;20463;-73
2022/04/25 00:22:38;;;;;;;3.47;3.17;;;17.70;61.40;;;;;;5033425;28;20440;-73
2022/04/25 00:25:07;;;;;;;3.17;2.97;;;17.70;61.60;;;;;;5024862;28;20950;-73
2022/04/25 00:27:35;;;;;;;4.13;3.20;;;17.80;61.70;;;;;;5033614;28;20432;-73
2022/04/25 00:30:06;;;;;;;3.10;2.90;;;17.70;61.60;;;;;;5033360;28;20466;-73
2022/04/25 00:32:34;;;;;;;3.60;3.30;;;17.70;61.40;;;;;;5033782;28;20436;-73
2022/04/25 00:35:03;;;;;;;3.77;3.47;;;17.70;61.50;;;;;;5027340;28;20522;-73
2022/04/25 00:37:31;;;;;;;3.37;3.17;;;17.70;61.60;;;;;;5033310;28;20436;-74
2022/04/25 00:39:59;;;;;;;3.00;2.80;;;17.70;61.60;;;;;;5032608;28;20525;-73
2022/04/25 00:42:27;;;;;;;3.70;3.40;;;17.70;61.70;;;;;;5019214;28;20523;-73
2022/04/25 00:44:55;;;;;;;3.37;3.07;;;17.70;61.60;;;;;;5032426;28;20996;-71
2022/04/25 00:47:25;;;;;;;3.10;2.90;;;17.70;61.60;;;;;;5033216;28;20464;-73
2022/04/25 00:49:53;;;;;;;3.60;3.30;;;17.70;61.60;;;;;;5022515;28;20507;-73
2022/04/25 00:52:22;;;;;;;3.30;2.97;;;17.70;61.60;;;;;;5033035;28;20937;-72
2022/04/25 00:54:50;;;;;;;3.03;2.83;;;17.70;61.60;;;;;;5025075;28;20535;-73
2022/04/25 00:57:18;;;;;;;3.00;2.80;;;17.70;61.60;;;;;;5029970;28;20440;-73
2022/04/25 00:59:47;;;;;;;3.37;3.10;;;17.70;61.60;;;;;;5032583;28;20467;-74
2022/04/25 01:02:15;;;;;;;2.70;2.50;;;17.70;61.60;;;;;;5032731;28;20447;-73
2022/04/25 01:04:44;;;;;;;2.83;2.63;;;17.70;61.60;;;;;;5024254;28;20472;-73
2022/04/25 01:07:13;;;;;;;3.53;3.23;;;17.70;61.60;;;;;;5033305;28;20436;-74
2022/04/25 01:09:41;;;;;;;3.33;3.10;;;17.70;61.60;;;;;;5027397;28;20531;-73
2022/04/25 01:12:09;;;;;;;3.10;2.90;;;17.70;61.70;;;;;;5032995;28;20443;-73
2022/04/25 01:14:37;;;;;;;3.70;3.40;;;17.70;61.60;;;;;;5030921;28;20510;-72
2022/04/25 01:17:07;;;;;;;3.50;3.20;;;17.70;63.00;;;;;;5023424;28;20494;-73
2022/04/25 01:19:35;;;;;;;3.33;3.10;;;17.70;61.70;;;;;;5031032;28;20471;-73
2022/04/25 01:22:10;;;;;;;3.20;3.00;;;17.70;61.70;;;;;;5032791;28;20837;-73
2022/04/25 01:27:34;;;;;;;3.17;2.97;;;17.70;61.60;;;;;;4996140;28;20448;-73
2022/04/25 01:30:03;;;;;;;3.20;3.00;;;17.70;61.60;;;;;;5032568;28;20518;-73
2022/04/25 01:32:31;;;;;;;3.60;3.30;;;17.70;61.70;;;;;;5029979;28;20452;-73
2022/04/25 01:34:59;;;;;;;3.47;3.27;;;17.60;61.50;;;;;;5030803;28;20514;-73
2022/04/25 01:37:28;;;;;;;3.00;2.80;;;17.60;61.60;;;;;;5031962;28;20448;-73
2022/04/25 01:39:57;;;;;;;2.80;2.60;;;17.60;61.50;;;;;;5030448;28;20513;-73
2022/04/25 01:42:26;;;;;;;2.30;2.20;;;17.60;61.60;;;;;;5031136;28;20494;-73
2022/04/25 01:44:54;;;;;;;4.00;3.70;;;17.60;61.50;;;;;;5030241;28;20530;-73
2022/04/25 01:47:22;;;;;;;3.50;3.30;;;17.60;61.50;;;;;;5030532;28;20506;-73
2022/04/25 01:49:50;;;;;;;3.53;3.33;;;17.60;61.60;;;;;;5013097;28;20472;-73
2022/04/25 01:52:24;;;;;;;4.83;3.40;;;17.60;61.50;;;;;;5032014;28;20432;-73
2022/04/25 01:54:52;;;;;;;3.57;3.27;;;17.60;61.50;;;;;;5024047;28;20484;-74
2022/04/25 01:57:22;;;;;;;3.07;2.87;;;17.60;61.60;;;;;;5032179;28;20429;-73
2022/04/25 01:59:51;;;;;;;3.60;3.30;;;17.60;62.30;;;;;;5031362;28;20472;-73
2022/04/25 02:02:22;;;;;;;3.00;2.80;;;17.60;61.50;;;;;;5031689;28;20848;-73
2022/04/25 02:04:50;;;;;;;3.80;3.50;;;17.60;61.50;;;;;;5030259;28;20826;-73
2022/04/25 02:07:19;;;;;;;3.13;2.93;;;17.60;61.50;;;;;;5031903;28;20436;-73
2022/04/25 02:09:47;;;;;;;3.70;3.47;;;17.60;61.50;;;;;;5030667;28;20829;-73
2022/04/25 02:12:15;;;;;;;3.53;3.33;;;17.60;61.50;;;;;;5026433;28;20436;-73
2022/04/25 02:14:46;;;;;;;3.40;3.20;;;17.60;61.50;;;;;;5031019;28;20531;-73
2022/04/25 02:17:14;;;;;;;3.20;3.00;;;17.60;61.50;;;;;;5031683;28;20437;-71
2022/04/25 02:19:44;;;;;;;3.40;3.20;;;17.60;61.50;;;;;;5020738;28;20524;-73
2022/04/25 02:22:16;;;;;;;3.00;2.80;;;17.60;61.50;;;;;;5028590;28;20439;-73
2022/04/25 02:24:44;;;;;;;3.20;3.00;;;17.60;61.50;;;;;;5024983;28;20546;-74
2022/04/25 02:27:12;;;;;;;3.27;2.97;;;17.60;61.50;;;;;;5021337;28;20929;-73
2022/04/25 02:29:40;;;;;;;3.10;2.90;;;17.60;61.50;;;;;;5030956;28;20559;-73
2022/04/25 02:32:12;;;;;;;2.63;2.43;;;17.50;61.50;;;;;;5031521;28;20432;-73
2022/04/25 02:34:42;;;;;;;3.20;3.00;;;17.50;61.50;;;;;;5027289;28;20472;-72
2022/04/25 02:37:10;;;;;;;2.87;2.67;;;17.60;61.50;;;;;;5031568;28;20428;-73
2022/04/25 02:39:38;;;;;;;3.47;3.27;;;17.60;61.50;;;;;;5025442;28;20531;-73
2022/04/25 02:42:06;;;;;;;3.07;2.87;;;17.50;61.50;;;;;;5028657;28;20523;-72
2022/04/25 02:44:34;;;;;;;3.10;2.90;;;17.50;61.50;;;;;;5030332;28;20476;-73
2022/04/25 02:47:04;;;;;;;4.13;3.77;;;17.50;61.50;;;;;;5031722;28;20439;-73
2022/04/25 02:49:33;;;;;;;2.63;2.43;;;17.50;61.70;;;;;;5014747;28;20507;-73
2022/04/25 02:52:01;;;;;;;2.97;2.77;;;17.50;61.50;;;;;;5031781;28;20424;-73
2022/04/25 02:54:30;;;;;;;3.57;3.30;;;17.50;61.90;;;;;;5029815;28;20484;-73
2022/04/25 02:56:58;;;;;;;2.67;2.47;;;17.50;61.70;;;;;;5031427;28;20917;-73
2022/04/25 02:59:27;;;;;;;3.57;3.27;;;17.50;62.10;;;;;;5030650;28;21048;-73
2022/04/25 03:01:55;;;;;;;2.83;2.63;;;17.50;62.00;;;;;;5031585;28;20519;-73
2022/04/25 03:04:23;;;;;;;3.00;2.80;;;17.50;62.20;;;;;;5027980;28;20503;-72
2022/04/25 03:06:54;;;;;;;3.53;3.23;;;17.50;62.30;;;;;;5021164;28;20510;-72
2022/04/25 03:09:22;;;;;;;3.60;3.33;;;17.50;62.40;;;;;;5017119;28;20479;-73
2022/04/25 03:11:51;;;;;;;2.70;2.50;;;17.50;62.40;;;;;;5023787;28;21009;-72
2022/04/25 03:14:19;;;;;;;4.47;4.17;;;17.40;62.40;;;;;;5030428;28;20833;-73
2022/04/25 03:16:49;;;;;;;3.13;2.93;;;17.40;62.10;;;;;;5030924;28;20478;-73
2022/04/25 03:19:18;;;;;;;3.30;3.10;;;17.40;62.50;;;;;;5022820;28;20473;-73
2022/04/25 03:21:47;;;;;;;3.60;3.30;;;17.40;62.50;;;;;;5031468;28;20452;-73
2022/04/25 03:24:16;;;;;;;3.50;3.00;;;17.40;62.60;;;;;;5027875;28;20861;-73
2022/04/25 03:26:44;;;;;;;3.30;3.10;;;17.40;62.60;;;;;;5029594;28;20428;-73
2022/04/25 03:29:13;;;;;;;3.67;3.47;;;17.40;62.60;;;;;;5030572;28;20905;-73
2022/04/25 03:31:42;;;;;;;2.83;2.63;;;17.40;62.50;;;;;;5030990;28;20448;-73
2022/04/25 03:34:11;;;;;;;3.47;3.20;;;17.40;62.60;;;;;;5023525;28;20488;-73
2022/04/25 03:36:39;;;;;;;3.13;2.83;;;17.40;62.60;;;;;;5031742;28;21105;-73
2022/04/25 03:39:07;;;;;;;3.60;3.30;;;17.40;62.60;;;;;;5032555;28;20734;-73
2022/04/25 03:41:36;;;;;;;3.10;2.90;;;17.40;62.60;;;;;;5033861;28;20467;-73
2022/04/25 03:44:05;;;;;;;3.27;2.53;;;17.40;62.60;;;;;;5033630;28;20533;-72
2022/04/25 03:46:32;;;;;;;3.73;2.77;;;17.40;62.70;;;;;;5034177;28;20873;-73
2022/04/25 03:49:00;;;;;;;3.20;3.00;;;17.40;62.60;;;;;;5032673;28;20854;-73
2022/04/25 03:51:29;;;;;;;3.23;3.03;;;17.40;62.70;;;;;;5033741;28;20889;-73
2022/04/25 03:53:57;;;;;;;3.07;2.87;;;17.30;62.70;;;;;;5033759;28;20563;-73
2022/04/25 03:59:13;;;;;;;4.10;2.53;;;17.30;62.70;;;;;;5033656;28;20487;-73
2022/04/25 04:01:41;;;;;;;3.10;2.90;;;17.30;62.80;;;;;;5033595;28;20436;-73
2022/04/25 04:04:09;;;;;;;3.20;3.00;;;17.30;62.60;;;;;;5028754;28;20465;-73
2022/04/25 04:06:38;;;;;;;3.20;3.00;;;17.30;62.80;;;;;;5033224;28;20476;-73
2022/04/25 04:11:48;;;;;;;3.00;2.80;;;17.40;62.90;;;;;;5032403;28;20982;-74
2022/04/25 04:14:18;;;;;;;3.50;3.20;;;17.30;62.90;;;;;;5032982;28;21048;-72
2022/04/25 04:16:46;;;;;;;3.13;2.83;;;17.30;63.00;;;;;;5023081;28;20977;-72
2022/04/25 04:19:14;;;;;;;3.03;2.83;;;17.30;63.00;;;;;;5015435;28;20469;-73
2022/04/25 04:21:42;;;;;;;3.23;3.03;;;17.30;62.90;;;;;;5032374;28;20526;-73
2022/04/25 04:24:10;;;;;;;2.53;2.33;;;17.30;63.20;;;;;;5031633;28;20468;-73
2022/04/25 04:26:42;;;;;;;3.07;2.87;;;17.30;63.10;;;;;;5033036;28;20448;-73
2022/04/25 04:29:11;;;;;;;2.90;2.70;;;17.30;63.00;;;;;;5033058;28;20563;-73
2022/04/25 04:31:41;;;;;;;3.20;3.00;;;17.30;63.10;;;;;;5033154;28;20495;-73
2022/04/25 04:34:09;;;;;;;2.87;2.67;;;17.30;63.20;;;;;;5021135;28;20534;-73
2022/04/25 04:36:37;;;;;;;3.13;2.93;;;17.30;63.10;;;;;;5032172;28;20501;-73
2022/04/25 04:39:05;;;;;;;2.77;2.57;;;17.30;63.10;;;;;;5032190;28;20830;-74
2022/04/25 04:41:33;;;;;;;2.90;2.70;;;17.30;63.20;;;;;;5031283;28;20531;-73
2022/04/25 04:44:03;;;;;;;2.70;2.50;;;17.20;63.10;;;;;;5032630;28;20514;-72
2022/04/25 04:46:31;;;;;;;3.00;2.80;;;17.20;63.20;;;;;;5031979;28;20935;-72
2022/04/25 04:49:04;;;;;;;3.90;3.60;;;17.20;63.20;;;;;;5028836;28;20473;-74
2022/04/25 04:51:32;;;;;;;2.93;2.67;;;17.20;63.20;;;;;;5030776;28;20506;-72
2022/04/25 04:54:01;;;;;;;3.27;3.07;;;17.20;63.20;;;;;;5031971;28;20838;-73
2022/04/25 04:56:30;;;;;;;3.33;3.13;;;17.20;63.10;;;;;;5030278;28;20440;-73
2022/04/25 04:58:58;;;;;;;2.80;2.60;;;17.20;63.10;;;;;;5032502;28;20472;-73
2022/04/25 05:01:27;;;;;;;3.27;3.07;;;17.20;63.20;;;;;;5033138;28;20459;-73
2022/04/25 05:03:58;;;;;;;3.33;3.03;;;17.20;64.40;;;;;;5030490;28;20480;-73
2022/04/25 05:06:28;;;;;;;2.93;2.73;;;17.20;63.20;;;;;;5032328;28;20439;-73
2022/04/25 05:08:56;;;;;;;3.27;2.87;;;17.20;63.30;;;;;;5032454;28;20464;-73
2022/04/25 05:11:24;;;;;;;3.47;3.17;;;17.20;63.20;;;;;;5030226;28;20506;-74
2022/04/25 05:13:52;;;;;;;3.10;2.90;;;17.20;63.20;;;;;;5032193;28;20463;-73
2022/04/25 05:16:20;;;;;;;3.00;2.80;;;17.20;63.30;;;;;;5031895;28;20991;-70
2022/04/25 05:18:49;;;;;;;2.93;2.73;;;17.20;63.30;;;;;;5030755;28;20460;-74
2022/04/25 05:21:17;;;;;;;3.33;3.10;;;17.20;63.40;;;;;;5032237;28;20464;-74
2022/04/25 05:23:50;;;;;;;3.27;2.97;;;17.20;63.30;;;;;;5032070;28;20563;-73
2022/04/25 05:26:18;;;;;;;3.07;2.87;;;17.20;63.30;;;;;;5030501;28;20447;-73
2022/04/25 05:28:46;;;;;;;3.10;2.90;;;17.10;63.20;;;;;;5032163;28;20514;-73
2022/04/25 05:31:14;;;;;;;2.60;2.40;;;17.10;63.20;;;;;;5032179;28;21034;-74
2022/04/25 05:33:42;;;;;;;3.97;3.70;;;17.10;63.10;;;;;;5030505;28;21011;-73
2022/04/25 05:36:10;;;;;;;2.93;2.73;;;17.10;63.30;;;;;;5032576;28;20487;-73
2022/04/25 05:38:38;;;;;;;3.60;3.30;;;17.10;63.20;;;;;;5031404;28;20483;-73
2022/04/25 05:41:09;;;;;;;3.23;3.00;;;17.10;63.20;;;;;;5029718;28;20535;-73
2022/04/25 05:43:38;;;;;;;3.17;2.97;;;17.10;63.30;;;;;;5031366;28;20463;-74
2022/04/25 05:46:07;;;;;;;3.43;2.93;;;17.10;63.20;;;;;;5030955;28;20499;-73
2022/04/25 05:54:07;;;;;;;2.90;2.60;;;17.10;63.30;;;;;;5030313;28;20470;-73
2022/04/25 05:56:36;;;;;;;3.13;2.90;;;17.10;63.30;;;;;;5031621;28;20440;-73
2022/04/25 05:59:05;;;;;;;3.20;3.00;;;17.10;63.40;;;;;;5031022;28;20472;-72
2022/04/25 06:01:33;;;;;;;3.37;3.07;;;17.10;63.50;;;;;;5031566;28;20501;-73
2022/04/25 06:04:01;;;;;;;3.47;3.17;;;17.10;63.30;;;;;;5025633;28;21001;-73
2022/04/25 06:06:30;;;;;;;3.77;3.30;;;17.10;63.40;;;;;;5031662;28;20440;-73
2022/04/25 06:08:58;;;;;;;3.13;2.93;;;17.10;63.40;;;;;;5031055;28;20468;-73
2022/04/25 06:11:26;;;;;;;3.30;3.00;;;17.10;63.40;;;;;;5030133;28;20961;-73
2022/04/25 06:13:57;;;;;;;3.50;3.20;;;17.00;63.30;;;;;;5031508;28;20471;-74
2022/04/25 06:16:25;;;;;;;3.50;3.20;;;17.10;63.40;;;;;;5028547;28;20518;-71
2022/04/25 06:18:53;;;;;;;3.20;3.00;;;17.10;63.50;;;;;;5015849;28;20457;-73
2022/04/25 06:21:21;;;;;;;3.67;3.40;;;17.00;63.40;;;;;;5030253;28;20820;-73
2022/04/25 06:23:49;;;;;;;3.63;3.33;;;17.00;63.30;;;;;;5030278;28;20517;-73
2022/04/25 06:26:17;;;;;;;3.57;3.30;;;17.00;63.40;;;;;;5022616;28;20448;-73
2022/04/25 06:28:46;;;;;;;3.33;3.03;;;17.00;63.40;;;;;;5031131;28;20494;-73
2022/04/25 06:31:16;;;;;;;2.90;2.70;;;17.00;63.40;;;;;;5031549;28;20514;-73
2022/04/25 06:33:44;;;;;;;2.93;2.30;;;17.00;63.40;;;;;;5019000;28;20468;-73
2022/04/25 06:36:12;;;;;;;2.57;2.37;;;17.00;63.50;;;;;;5022681;28;20527;-73
2022/04/25 06:38:40;;;;;;;3.33;3.13;;;17.00;63.50;;;;;;5031236;28;20495;-73
2022/04/25 06:41:08;;;;;;;3.50;3.20;;;17.00;63.50;;;;;;5023421;28;20479;-73
2022/04/25 06:43:36;;;;;;;2.70;2.50;;;17.00;63.60;;;;;;5030368;28;20562;-73
2022/04/25 06:46:05;;;;;;;3.53;3.23;;;17.00;63.60;;;;;;5030212;28;20442;-73
2022/04/25 06:48:35;;;;;;;2.77;2.57;;;17.00;63.60;;;;;;5028412;28;20480;-73
2022/04/25 06:51:03;;;;;;;3.40;3.13;;;17.00;63.70;;;;;;5031867;28;20470;-73
2022/04/25 06:53:31;;;;;;;3.20;3.00;;;17.00;63.60;;;;;;5029507;28;21018;-73
2022/04/25 06:55:59;;;;;;;3.30;3.10;;;17.00;63.70;;;;;;5026067;28;20440;-73
2022/04/25 06:58:27;;;;;;;2.90;2.70;;;17.00;63.60;;;;;;5030382;28;20984;-74
2022/04/25 07:00:55;;;;;;;3.43;3.10;;;17.00;63.60;;;;;;5031517;28;20428;-73
2022/04/25 07:03:31;;;;;;;3.37;3.07;;;17.00;63.60;;;;;;5029836;28;20463;-73
2022/04/25 07:06:00;;;;;;;2.70;2.50;;;17.00;63.60;;;;;;5030814;28;20437;-73
2022/04/25 07:08:29;;;;;;;3.23;2.50;;;17.00;63.60;;;;;;5027524;28;20459;-74
2022/04/25 07:10:57;;;;;;;3.73;2.93;;;17.00;63.60;;;;;;5015801;28;20447;-73
2022/04/25 07:13:25;;;;;;;2.70;2.50;;;17.00;63.60;;;;;;5029558;28;20510;-73
2022/04/25 07:15:53;;;;;;;6.80;3.53;;;17.00;63.60;;;;;;5034533;28;20566;-73
2022/04/25 07:18:21;;;;;;;3.60;3.30;;;17.00;64.90;;;;;;5028228;28;20488;-73
2022/04/25 07:20:50;;;;;;;3.67;3.20;;;17.00;63.60;;;;;;5017499;28;20933;-73
2022/04/25 07:28:53;;;;;;;3.23;3.03;;;17.00;63.60;;;;;;5020428;28;20473;-73
2022/04/25 07:31:21;;;;;;;4.43;4.07;;;17.00;63.60;;;;;;5034737;28;20996;-73
2022/04/25 07:33:49;;;;;;;4.50;4.10;;;17.00;63.40;;;;;;5024972;28;20473;-73
2022/04/25 07:36:20;;;;;;;4.27;3.97;;;17.00;63.50;;;;;;5023271;28;20424;-73
2022/04/25 07:38:49;;;;;;;4.33;4.03;;;17.00;63.10;;;;;;5034155;28;21085;-73
2022/04/25 07:41:18;;;;;;;2.97;2.77;;;17.00;62.70;;;;;;5026711;28;20925;-73
2022/04/25 07:43:46;;;;;;;3.13;2.93;;;17.00;63.10;;;;;;5034005;28;20571;-73
2022/04/25 07:46:16;;;;;;;3.30;3.00;;;17.10;63.20;;;;;;5033643;28;20452;-73
2022/04/25 07:48:44;;;;;;;3.07;2.87;;;17.10;63.40;;;;;;5028540;28;20468;-73
2022/04/25 07:51:12;;;;;;;3.13;2.87;;;17.10;63.30;;;;;;5026049;28;20428;-73
2022/04/25 07:53:41;;;;;;;2.97;2.77;;;17.10;63.40;;;;;;5028744;28;20510;-73
2022/04/25 07:56:11;;;;;;;3.17;2.90;;;17.10;63.30;;;;;;5029608;28;20456;-73
2022/04/25 07:58:39;;;;;;;4.70;3.47;;;17.10;63.40;;;;;;5032890;28;20522;-73
2022/04/25 08:01:07;;;;;;;3.93;3.67;;;17.10;63.40;;;;;;5034340;28;20427;-73
2022/04/25 08:03:36;;;;;;;4.93;4.53;;;17.10;63.20;;;;;;5031583;28;21034;-73
2022/04/25 08:06:05;;;;;;;4.50;4.13;;;17.00;63.10;;;;;;5034002;28;20466;-73
2022/04/25 08:08:33;;;;;;;3.50;3.30;;;17.00;63.20;;;;;;5031106;28;20472;-73
2022/04/25 08:11:02;;;;;;;3.30;3.00;;;17.00;63.30;;;;;;5029737;28;20498;-73
2022/04/25 08:19:03;;;;;;;3.50;3.20;;;17.00;63.10;;;;;;5028219;28;20483;-73
2022/04/25 08:21:31;;;;;;;3.50;3.20;;;17.00;63.30;;;;;;5014289;28;20943;-73
2022/04/25 08:24:01;;;;;;;3.77;3.47;;;17.00;64.60;;;;;;5031368;28;21015;-72
2022/04/25 08:26:29;;;;;;;3.90;3.60;;;17.00;64.60;;;;;;5033679;28;20429;-73
2022/04/25 08:29:00;;;;;;;2.83;2.63;;;17.00;63.50;;;;;;5032978;28;20475;-73
2022/04/25 08:31:31;;;;;;;2.47;2.37;;;17.00;63.60;;;;;;5032297;28;20505;-72
2022/04/25 08:34:00;;;;;;;3.20;3.00;;;16.90;63.40;;;;;;5028475;28;20475;-73
2022/04/25 08:36:28;;;;;;;3.00;2.80;;;16.90;63.50;;;;;;5033652;28;20439;-73
2022/04/25 08:38:56;;;;;;;3.00;2.80;;;16.90;63.50;;;;;;5032358;28;20526;-73
2022/04/25 08:41:28;;;;;;;2.93;2.67;;;16.90;63.60;;;;;;5028973;28;20449;-73
2022/04/25 08:43:59;;;;;;;3.93;3.63;;;16.90;63.60;;;;;;5026936;28;20464;-74
2022/04/25 08:46:30;;;;;;;5.70;5.13;;;16.90;63.70;;;;;;5033323;28;20517;-73
2022/04/25 08:49:01;;;;;;;3.40;3.10;;;16.90;63.50;;;;;;5030801;28;20970;-73
2022/04/25 08:51:30;;;;;;;2.87;2.67;;;16.90;63.50;;;;;;5025852;28;20498;-73
2022/04/25 08:53:59;;;;;;;3.23;3.03;;;16.90;63.60;;;;;;5031743;28;20571;-73
2022/04/25 08:56:28;;;;;;;3.07;2.87;;;16.90;63.70;;;;;;5046470;28;20436;-74
2022/04/25 08:58:59;;;;;;;2.90;2.70;;;16.90;63.70;;;;;;5032399;28;20468;-72
2022/04/25 09:01:27;;;;;;;3.10;2.90;;;16.90;63.80;;;;;;5032996;28;20502;-74
2022/04/25 09:03:55;;;;;;;2.93;2.73;;;16.90;63.70;;;;;;5018035;28;20468;-73
2022/04/25 09:06:24;;;;;;;3.00;2.80;;;16.90;63.60;;;;;;5023780;28;20803;-73
2022/04/25 09:08:52;;;;;;;4.77;4.37;;;16.90;63.60;;;;;;5031999;28;20509;-74
2022/04/25 09:14:10;;;;;;;3.10;2.90;;;16.90;63.50;;;;;;5024135;28;20473;-73
2022/04/25 09:16:38;;;;;;;3.87;3.57;;;16.90;63.70;;;;;;5029796;28;20478;-73
2022/04/25 09:19:07;;;;;;;4.10;3.80;;;16.90;63.80;;;;;;5028069;28;21119;-73
2022/04/25 09:21:41;;;;;;;3.50;3.20;;;16.90;63.30;;;;;;5032960;28;20486;-74
2022/04/25 09:24:23;;;;;;;4.93;4.53;;;16.90;63.50;;;;;;5030121;28;20993;-73
2022/04/25 09:26:53;;;;;;;5.67;5.17;;;16.90;62.70;;;;;;5029681;28;20450;-73
2022/04/25 09:29:29;;;;;;;6.80;6.10;;;16.90;63.10;;;;;;5031770;28;20456;-73
2022/04/25 09:31:58;;;;;;;4.10;3.80;;;16.80;62.90;;;;;;5030544;28;20433;-73
2022/04/25 09:37:11;;;;;;;4.73;4.27;;;16.80;63.10;;;;;;5030073;28;20470;-73
2022/04/25 09:39:40;;;;;;;6.03;5.53;;;16.80;62.80;;;;;;5025799;28;20482;-74
2022/04/25 09:42:08;;;;;;;3.57;3.33;;;16.80;63.00;;;;;;5012743;28;20451;-73
2022/04/25 09:44:57;;;;;;;4.73;4.33;;;16.80;63.20;;;;;;5027656;28;20531;-73
2022/04/25 09:47:29;;;;;;;4.03;3.73;;;16.80;63.10;;;;;;5032221;28;20428;-74
2022/04/25 09:50:02;;;;;;;4.63;4.33;;;16.80;63.40;;;;;;5024955;28;20507;-72
2022/04/25 09:52:31;;;;;;;3.60;3.30;;;16.80;62.90;;;;;;5026408;28;20444;-73
2022/04/25 09:55:11;;;;;;;5.47;5.07;;;16.80;63.30;;;;;;5022650;28;21006;-72
2022/04/25 09:57:39;;;;;;;3.20;2.90;;;16.80;63.10;;;;;;5012543;28;20547;-73
2022/04/25 10:00:10;;;;;;;2.50;2.30;;;16.80;63.20;;;;;;5031720;28;20435;-73
2022/04/25 10:02:43;;;;;;;3.43;3.23;;;16.80;63.40;;;;;;5027841;28;20443;-73
2022/04/25 10:05:14;;;;;;;3.00;2.80;;;16.80;63.30;;;;;;5010897;28;20452;-73
2022/04/25 10:07:44;;;;;;;3.20;3.00;;;16.80;63.40;;;;;;5025353;28;20487;-73
2022/04/25 10:10:13;;;;;;;3.00;2.80;;;16.80;63.30;;;;;;5028573;28;20801;-73
2022/04/25 10:12:42;;;;;;;2.50;2.40;;;16.80;63.40;;;;;;5031111;28;20483;-74
2022/04/25 10:15:11;;;;;;;2.87;2.67;;;16.80;63.60;;;;;;5031042;28;20857;-73
2022/04/25 10:17:39;;;;;;;3.20;3.00;;;16.80;63.60;;;;;;5031155;28;20913;-73
2022/04/25 10:20:09;;;;;;;3.50;3.30;;;16.80;64.80;;;;;;5015830;28;20437;-74
2022/04/25 10:22:37;;;;;;;4.30;4.00;;;16.80;63.60;;;;;;5031939;28;20444;-73
2022/04/25 10:25:06;;;;;;;3.33;3.13;;;16.80;63.50;;;;;;5022524;28;20480;-74
2022/04/25 10:27:36;;;;;;;5.10;4.70;;;16.80;63.60;;;;;;5012300;28;20437;-73
2022/04/25 10:30:14;;;;;;;4.30;4.00;;;16.80;63.60;;;;;;5030481;28;20459;-73
2022/04/25 10:32:42;;;;;;;3.00;2.80;;;16.70;63.30;;;;;;5025729;28;20506;-73
2022/04/25 10:35:14;;;;;;;2.90;2.70;;;16.70;63.50;;;;;;5030661;28;20984;-73
2022/04/25 10:37:44;;;;;;;2.20;2.10;;;16.70;63.60;;;;;;5031001;28;20922;-74
2022/04/25 10:40:14;;;;;;;2.87;2.67;;;16.70;63.70;;;;;;5026382;28;20548;-73
2022/04/25 10:45:55;;;;;;;2.47;2.30;;;16.70;63.70;;;;;;5031797;28;20861;-74
2022/04/25 10:48:23;;;;;;;2.93;2.73;;;16.70;63.70;;;;;;5032892;28;20472;-73
2022/04/25 10:51:12;;;;;;;2.57;2.47;;;16.70;63.70;;;;;;5019176;28;20519;-74
2022/04/25 10:54:08;;;;;;;2.90;2.70;;;16.70;63.70;;;;;;5029812;28;20494;-73
2022/04/25 10:56:36;;;;;;;3.17;2.90;;;16.70;63.80;;;;;;4989795;28;20444;-72
2022/04/25 10:59:24;;;;;;;2.90;2.57;;;16.70;63.60;;;;;;5035212;28;20467;-74
2022/04/25 11:01:56;;;;;;;3.47;3.27;;;16.70;63.50;;;;;;5033677;28;20478;-73
2022/04/25 11:04:25;;;;;;;4.83;4.43;;;16.70;64.60;;;;;;5042552;28;20525;-73
2022/04/25 11:07:21;;;;;;;4.57;4.27;;;16.70;63.40;;;;;;5034738;28;20432;-73
2022/04/25 11:09:49;;;;;;;4.13;3.83;;;16.70;62.80;;;;;;5027963;28;20535;-73
2022/04/25 11:12:18;;;;;;;4.10;3.80;;;16.70;63.10;;;;;;5032643;28;20949;-74
2022/04/25 11:14:59;;;;;;;4.67;4.37;;;16.70;63.10;;;;;;5034325;28;20472;-74
2022/04/25 11:17:28;;;;;;;3.67;3.47;;;16.70;63.00;;;;;;5034984;28;20494;-73
2022/04/25 11:19:57;;;;;;;4.23;3.83;;;16.70;63.10;;;;;;5032214;28;20464;-73
2022/04/25 11:22:51;;;;;;;3.47;3.20;;;16.70;63.10;;;;;;5034579;28;21162;-73
2022/04/25 11:25:41;;;;;;;3.40;3.20;;;16.70;63.20;;;;;;5023643;28;21027;-73
2022/04/25 11:28:11;;;;;;;3.73;3.37;;;16.70;63.20;;;;;;5014731;28;20499;-73
2022/04/25 11:30:42;;;;;;;4.10;3.77;;;16.70;63.50;;;;;;5030816;28;20439;-73
2022/04/25 11:33:13;;;;;;;3.70;3.40;;;16.70;63.20;;;;;;5034370;28;20470;-73
2022/04/25 11:35:43;;;;;;;3.90;3.47;;;16.70;63.30;;;;;;5029821;28;20456;-74
2022/04/25 11:39:50;;;;;;;3.40;3.20;;;16.70;63.50;;;;;;5029761;28;20479;-73
2022/04/25 11:41:01;;;;;;;2.80;2.60;;;16.70;64.70;;;;;;5018138;28;20453;-73
2022/04/25 11:43:29;;;;;;;2.80;2.60;;;16.70;63.50;;;;;;5014519;28;20587;-73
2022/04/25 11:45:58;;;;;;;3.43;3.23;;;16.60;63.60;;;;;;5014784;28;20457;-73
2022/04/25 11:48:27;;;;;;;3.70;3.40;;;16.60;63.60;;;;;;5024398;28;20459;-73
2022/04/25 11:50:55;;;;;;;4.30;4.00;;;16.70;63.70;;;;;;5029736;28;20439;-73
2022/04/25 11:53:32;;;;;;;6.03;4.53;;;16.60;63.70;;;;;;5034133;28;20452;-73
2022/04/25 11:56:01;;;;;;;6.00;5.50;;;16.60;63.70;;;;;;5031259;28;20432;-73
2022/04/25 11:58:30;;;;;;;4.30;3.90;;;16.60;64.00;;;;;;5013172;28;20548;-73
2022/04/25 12:00:58;;;;;;;3.97;3.67;;;16.60;63.90;;;;;;5031707;28;20443;-75
2022/04/25 12:03:30;;;;;;;4.80;4.40;;;16.60;63.90;;;;;;5029814;28;20475;-74
2022/04/25 12:06:08;;;;;;;4.13;3.83;;;16.60;63.80;;;;;;5033216;28;20852;-74
2022/04/25 12:17:02;;;;;;;3.73;3.47;;;16.60;63.60;;;;;;5014366;28;20780;-73
2022/04/25 12:19:35;;;;;;;2.77;2.57;;;16.60;63.80;;;;;;5018856;28;20489;-73
2022/04/25 12:22:05;;;;;;;3.47;3.20;;;16.60;64.10;;;;;;5033796;28;20444;-74
2022/04/25 12:24:33;;;;;;;3.47;3.27;;;16.50;63.90;;;;;;5027339;28;20481;-72
2022/04/25 12:27:13;;;;;;;3.67;3.37;;;16.60;63.90;;;;;;5020039;28;20448;-75
2022/04/25 12:30:06;;;;;;;4.20;3.90;;;16.60;64.00;;;;;;5033176;28;21035;-73
2022/04/25 12:32:34;;;;;;;3.03;2.83;;;16.60;63.90;;;;;;5013732;28;20983;-73
2022/04/25 12:35:04;;;;;;;3.50;3.20;;;16.50;64.00;;;;;;5015429;28;20477;-73
2022/04/25 12:37:40;;;;;;;3.10;2.90;;;16.50;63.80;;;;;;5033856;28;20444;-73
2022/04/25 12:40:10;;;;;;;3.30;3.10;;;16.60;63.60;;;;;;5023854;28;20473;-73
2022/04/25 12:42:51;;;;;;;3.60;3.30;;;16.60;64.00;;;;;;5026684;28;20471;-73
2022/04/25 12:45:19;;;;;;;3.17;2.97;;;16.60;64.10;;;;;;5033102;28;20464;-73
2022/04/25 12:47:54;;;;;;;2.77;2.57;;;16.60;64.20;;;;;;5032534;28;20460;-73
2022/04/25 12:50:43;;;;;;;3.20;3.00;;;16.60;64.20;;;;;;5032068;28;20960;-73
2022/04/25 12:53:11;;;;;;;3.20;3.00;;;16.60;64.20;;;;;;5032510;28;20920;-73
2022/04/25 12:55:46;;;;;;;3.17;2.97;;;16.60;64.30;;;;;;5019913;28;21048;-73
2022/04/25 12:58:16;;;;;;;2.63;2.43;;;16.60;64.30;;;;;;5027336;28;20467;-73
2022/04/25 13:00:45;;;;;;;3.43;3.23;;;16.60;64.30;;;;;;5032636;28;20436;-73
2022/04/25 13:03:33;;;;;;;4.10;3.80;;;16.60;64.10;;;;;;5028472;28;20557;-73
2022/04/25 13:06:03;;;;;;;3.27;3.07;;;16.60;63.80;;;;;;5029972;28;20514;-73
2022/04/25 13:08:32;;;;;;;2.80;2.60;;;16.60;64.00;;;;;;5030522;28;20472;-73
2022/04/25 13:11:00;;;;;;;3.43;2.87;;;16.60;63.50;;;;;;5029790;28;20523;-73
2022/04/25 13:13:28;;;;;;;5.10;4.70;;;16.60;63.60;;;;;;5031622;28;20830;-74
2022/04/25 13:15:57;;;;;;;4.17;3.87;;;16.60;60.60;;;;;;5032092;28;20464;-73
2022/04/25 13:18:26;;;;;;;3.70;3.50;;;16.50;60.50;;;;;;5018131;28;20474;-73
2022/04/25 13:20:54;;;;;;;3.03;2.83;;;16.60;62.20;;;;;;5013112;28;20903;-73
2022/04/25 13:23:24;;;;;;;3.63;3.43;;;16.60;62.10;;;;;;5012579;28;20453;-73
2022/04/25 13:25:52;;;;;;;3.00;2.80;;;16.60;62.90;;;;;;5012603;28;20883;-74
2022/04/25 13:28:20;;;;;;;3.67;3.37;;;16.60;62.60;;;;;;5012261;28;20985;-73
2022/04/25 13:30:51;;;;;;;4.50;4.20;;;16.60;62.60;;;;;;5013257;28;20495;-73
2022/04/25 13:33:19;;;;;;;3.70;3.50;;;16.60;62.50;;;;;;5012347;28;20464;-73
2022/04/25 13:35:48;;;;;;;4.00;3.70;;;16.60;62.00;;;;;;5011458;28;20477;-74
2022/04/25 13:38:16;;;;;;;4.90;3.50;;;16.60;61.90;;;;;;5012220;28;20978;-73
2022/04/25 13:40:47;;;;;;;4.33;4.03;;;16.60;62.30;;;;;;5012552;28;20494;-73
2022/04/25 13:43:16;;;;;;;3.10;2.90;;;16.60;62.30;;;;;;5012165;28;21061;-73